createdAt,value
2023-04-30T00:00:15.265Z,50.80
2023-04-30T00:01:15.239Z,55.50
2023-04-30T00:02:15.418Z,52.90
2023-04-30T00:03:15.316Z,54.10
2023-04-30T00:04:15.346Z,49.70
2023-04-30T00:05:15.201Z,53.80
2023-04-30T00:06:15.214Z,53.70
2023-04-30T00:07:15.188Z,57.10
2023-04-30T00:08:15.182Z,54.60
2023-04-30T00:09:15.211Z,53.70
2023-04-30T00:10:15.153Z,52.40
2023-04-30T00:11:15.633Z,50.10
2023-04-30T00:12:15.163Z,47.50
2023-04-30T00:13:15.163Z,53.20
2023-04-30T00:14:15.898Z,49.90
2023-04-30T00:15:15.133Z,49.20
2023-04-30T00:16:15.769Z,50.10
2023-04-30T00:17:15.114Z,53.70
2023-04-30T00:18:15.133Z,55.30
2023-04-30T00:19:15.136Z,58.50
2023-04-30T00:20:15.074Z,56.30
2023-04-30T00:21:15.142Z,61.20
2023-04-30T00:22:15.075Z,57.70
2023-04-30T00:23:15.053Z,61.10
2023-04-30T00:24:15.043Z,64.80
2023-04-30T00:25:15.113Z,61.60
2023-04-30T00:26:15.526Z,55.70
2023-04-30T00:27:15.382Z,55.00
2023-04-30T00:28:15.054Z,55.70
2023-04-30T00:29:15.718Z,57.90
2023-04-30T00:30:15.294Z,57.70
2023-04-30T00:31:15.002Z,57.70
2023-04-30T00:32:15.105Z,60.70
2023-04-30T00:33:15.054Z,55.40
2023-04-30T00:34:14.989Z,58.60
2023-04-30T00:35:14.995Z,58.50
2023-04-30T00:36:15.209Z,60.80
2023-04-30T00:37:14.974Z,59.60
2023-04-30T00:38:15.594Z,60.80
2023-04-30T00:39:15.698Z,60.30
2023-04-30T00:40:14.958Z,52.10
2023-04-30T00:41:14.941Z,56.00
2023-04-30T00:42:15.475Z,61.30
2023-04-30T00:43:14.910Z,59.80
2023-04-30T00:44:14.883Z,64.90
2023-04-30T00:45:14.881Z,55.40
2023-04-30T00:46:14.965Z,56.50
2023-04-30T00:47:14.876Z,61.10
2023-04-30T00:48:14.880Z,59.40
2023-04-30T00:49:15.255Z,67.30
2023-04-30T00:50:14.841Z,64.80
2023-04-30T00:51:14.907Z,65.40
2023-04-30T00:52:14.823Z,61.90
2023-04-30T00:53:14.842Z,64.50
2023-04-30T00:54:14.832Z,56.80
2023-04-30T00:55:14.799Z,61.50
2023-04-30T00:56:14.841Z,68.80
2023-04-30T00:57:14.809Z,62.80
2023-04-30T00:58:14.773Z,65.40
2023-04-30T00:59:14.788Z,67.90
2023-04-30T01:00:14.784Z,62.50
2023-04-30T01:01:14.820Z,57.00
2023-04-30T01:02:14.752Z,57.40
2023-04-30T01:03:14.791Z,65.20
2023-04-30T01:04:14.749Z,65.50
2023-04-30T01:05:14.751Z,67.60
2023-04-30T01:06:14.764Z,69.90
2023-04-30T01:07:14.749Z,71.10
2023-04-30T01:08:14.740Z,71.30
2023-04-30T01:09:14.716Z,71.50
2023-04-30T01:10:14.694Z,64.00
2023-04-30T01:11:14.674Z,70.10
2023-04-30T01:12:14.712Z,64.10
2023-04-30T01:13:15.267Z,65.50
2023-04-30T01:14:14.666Z,69.30
2023-04-30T01:15:14.668Z,66.50
2023-04-30T01:16:14.690Z,70.20
2023-04-30T01:17:14.678Z,64.70
2023-04-30T01:18:16.079Z,67.80
2023-04-30T01:19:14.684Z,65.70
2023-04-30T01:20:14.642Z,69.20
2023-04-30T01:21:14.619Z,65.10
2023-04-30T01:22:14.626Z,67.10
2023-04-30T01:23:14.627Z,70.90
2023-04-30T01:24:14.593Z,68.20
2023-04-30T01:25:15.478Z,64.20
2023-04-30T01:26:14.587Z,68.00
2023-04-30T01:27:14.591Z,65.90
2023-04-30T01:28:14.611Z,68.10
2023-04-30T01:29:14.558Z,68.40
2023-04-30T01:30:14.566Z,69.20
2023-04-30T01:31:14.584Z,67.90
2023-04-30T01:32:14.592Z,62.80
2023-04-30T01:33:14.536Z,66.20
2023-04-30T01:34:14.525Z,64.50
2023-04-30T01:35:14.497Z,70.40
2023-04-30T01:36:14.533Z,67.30
2023-04-30T01:37:14.505Z,68.20
2023-04-30T01:38:14.504Z,68.00
2023-04-30T01:39:14.475Z,62.40
2023-04-30T01:40:14.455Z,70.40
2023-04-30T01:41:14.475Z,71.90
2023-04-30T01:42:14.445Z,63.00
2023-04-30T01:43:14.442Z,66.90
2023-04-30T01:44:14.440Z,53.90
2023-04-30T01:45:14.444Z,59.80
2023-04-30T01:46:14.489Z,59.10
2023-04-30T01:47:14.483Z,62.70
2023-04-30T01:48:14.397Z,58.40
2023-04-30T01:49:14.394Z,64.30
2023-04-30T01:50:14.398Z,60.70
2023-04-30T01:51:14.419Z,62.20
2023-04-30T01:52:14.423Z,62.00
2023-04-30T01:53:16.885Z,59.10
2023-04-30T01:54:14.345Z,55.20
2023-04-30T01:55:14.366Z,54.90
2023-04-30T01:56:14.349Z,59.00
2023-04-30T01:57:14.398Z,57.40
2023-04-30T01:58:14.328Z,52.70
2023-04-30T01:59:14.314Z,53.90
2023-04-30T02:00:14.329Z,53.00
2023-04-30T02:01:14.373Z,56.00
2023-04-30T02:02:14.336Z,54.40
2023-04-30T02:03:14.462Z,58.70
2023-04-30T02:04:14.301Z,62.30
2023-04-30T02:05:14.261Z,57.20
2023-04-30T02:06:14.277Z,58.30
2023-04-30T02:07:14.280Z,55.90
2023-04-30T02:08:14.307Z,61.60
2023-04-30T02:09:14.288Z,59.20
2023-04-30T02:10:14.336Z,54.00
2023-04-30T02:11:14.259Z,55.70
2023-04-30T02:12:14.226Z,55.00
2023-04-30T02:13:14.498Z,57.30
2023-04-30T02:14:15.954Z,62.10
2023-04-30T02:15:14.243Z,65.80
2023-04-30T02:16:14.247Z,59.00
2023-04-30T02:17:14.217Z,58.70
2023-04-30T02:18:14.289Z,62.10
2023-04-30T02:19:14.588Z,57.90
2023-04-30T02:20:14.169Z,55.70
2023-04-30T02:21:14.261Z,53.50
2023-04-30T02:22:14.157Z,59.30
2023-04-30T02:23:14.166Z,54.70
2023-04-30T02:24:14.148Z,60.10
2023-04-30T02:25:14.181Z,53.30
2023-04-30T02:26:14.134Z,52.10
2023-04-30T02:27:14.089Z,52.80
2023-04-30T02:28:14.334Z,52.70
2023-04-30T02:29:14.138Z,54.20
2023-04-30T02:30:14.100Z,51.60
2023-04-30T02:31:14.124Z,54.30
2023-04-30T02:32:14.073Z,47.80
2023-04-30T02:33:14.047Z,51.40
2023-04-30T02:34:14.102Z,47.40
2023-04-30T02:35:14.046Z,47.70
2023-04-30T02:36:14.023Z,47.90
2023-04-30T02:37:14.017Z,56.60
2023-04-30T02:38:14.037Z,55.50
2023-04-30T02:39:14.029Z,96.20
2023-04-30T02:40:14.029Z,312.10
2023-04-30T02:41:13.994Z,122.50
2023-04-30T02:42:13.973Z,137.40
2023-04-30T02:43:14.057Z,128.20
2023-04-30T02:44:13.987Z,325.90
2023-04-30T02:45:14.052Z,493.80
2023-04-30T02:46:14.005Z,173.00
2023-04-30T02:47:13.969Z,136.90
2023-04-30T02:48:13.942Z,118.60
2023-04-30T02:49:13.951Z,116.80
2023-04-30T02:50:13.968Z,112.40
2023-04-30T02:51:13.960Z,110.40
2023-04-30T02:52:13.918Z,105.70
2023-04-30T02:53:13.949Z,91.90
2023-04-30T02:54:13.922Z,88.20
2023-04-30T02:55:13.912Z,92.50
2023-04-30T02:56:13.908Z,98.30
2023-04-30T02:57:13.909Z,111.90
2023-04-30T02:58:13.865Z,167.70
2023-04-30T02:59:13.856Z,129.40
2023-04-30T03:00:13.852Z,123.20
2023-04-30T03:01:13.865Z,123.50
2023-04-30T03:02:13.892Z,142.20
2023-04-30T03:03:13.933Z,202.00
2023-04-30T03:04:13.816Z,245.40
2023-04-30T03:05:13.824Z,151.00
2023-04-30T03:06:13.913Z,122.00
2023-04-30T03:07:13.801Z,137.70
2023-04-30T03:08:13.807Z,171.50
2023-04-30T03:09:13.812Z,178.90
2023-04-30T03:10:13.790Z,379.00
2023-04-30T03:11:13.767Z,333.20
2023-04-30T03:12:13.815Z,455.40
2023-04-30T03:13:13.791Z,401.20
2023-04-30T03:14:13.743Z,287.80
2023-04-30T03:15:13.750Z,437.30
2023-04-30T03:16:13.749Z,477.30
2023-04-30T03:17:13.719Z,540.70
2023-04-30T03:18:13.762Z,545.30
2023-04-30T03:19:13.757Z,484.20
2023-04-30T03:20:13.732Z,438.70
2023-04-30T03:21:13.702Z,480.80
2023-04-30T03:22:13.711Z,909.60
2023-04-30T03:23:13.681Z,531.10
2023-04-30T03:24:13.707Z,643.10
2023-04-30T03:25:13.648Z,574.30
2023-04-30T03:26:13.652Z,609.00
2023-04-30T03:27:13.632Z,441.40
2023-04-30T03:28:13.624Z,538.50
2023-04-30T03:29:13.625Z,581.40
2023-04-30T03:30:13.636Z,573.40
2023-04-30T03:31:13.610Z,586.00
2023-04-30T03:32:13.646Z,550.70
2023-04-30T03:33:13.603Z,674.30
2023-04-30T03:34:13.582Z,695.60
2023-04-30T03:35:13.584Z,643.50
2023-04-30T03:36:13.606Z,602.00
2023-04-30T03:37:13.602Z,559.30
2023-04-30T03:38:13.571Z,755.50
2023-04-30T03:39:13.599Z,664.50
2023-04-30T03:40:13.539Z,480.80
2023-04-30T03:41:13.577Z,566.20
2023-04-30T03:42:13.548Z,630.40
2023-04-30T03:43:13.532Z,634.60
2023-04-30T03:44:13.520Z,565.00
2023-04-30T03:45:13.510Z,648.40
2023-04-30T03:46:13.509Z,780.90
2023-04-30T04:02:33.714Z,368.00
2023-04-30T04:03:33.617Z,416.80
2023-04-30T04:04:34.752Z,572.60
2023-04-30T04:05:34.752Z,665.60
2023-04-30T04:06:34.824Z,502.40
2023-04-30T04:07:35.764Z,450.90
2023-04-30T04:08:34.746Z,489.10
2023-04-30T04:09:34.711Z,572.00
2023-04-30T04:10:34.772Z,544.20
2023-04-30T04:11:37.229Z,523.40
2023-04-30T04:12:34.751Z,586.60
2023-04-30T04:13:34.713Z,688.80
2023-04-30T04:14:34.666Z,489.70
2023-04-30T04:15:34.720Z,489.10
2023-04-30T04:16:34.697Z,543.90
2023-04-30T04:17:34.684Z,599.70
2023-04-30T04:18:34.665Z,535.90
2023-04-30T04:19:34.625Z,555.10
2023-04-30T04:20:34.636Z,613.70
2023-04-30T04:21:34.644Z,515.50
2023-04-30T04:22:34.619Z,452.90
2023-04-30T04:23:34.651Z,430.10
2023-04-30T04:24:34.612Z,340.20
2023-04-30T04:25:34.585Z,319.30
2023-04-30T04:26:34.601Z,330.70
2023-04-30T04:27:34.585Z,415.30
2023-04-30T04:28:34.574Z,421.00
2023-04-30T04:29:34.587Z,442.80
2023-04-30T04:30:34.558Z,460.10
2023-04-30T04:31:34.622Z,327.30
2023-04-30T04:32:34.560Z,272.20
2023-04-30T04:33:34.519Z,279.00
2023-04-30T04:34:34.561Z,493.70
2023-04-30T04:35:34.523Z,343.30
2023-04-30T04:36:34.512Z,362.30
2023-04-30T04:37:34.541Z,389.30
2023-04-30T04:38:34.475Z,472.10
2023-04-30T04:39:34.472Z,402.80
2023-04-30T04:40:34.498Z,419.40
2023-04-30T04:41:34.478Z,503.10
2023-04-30T04:42:34.477Z,508.50
2023-04-30T04:43:34.478Z,588.30
2023-04-30T04:44:34.452Z,436.50
2023-04-30T04:45:34.457Z,323.40
2023-04-30T04:46:34.508Z,489.80
2023-04-30T04:47:34.444Z,500.00
2023-04-30T04:48:34.408Z,394.40
2023-04-30T04:49:34.405Z,433.70
2023-04-30T04:50:34.400Z,288.00
2023-04-30T04:51:34.405Z,389.10
2023-04-30T04:52:34.390Z,474.20
2023-04-30T04:53:34.937Z,404.80
2023-04-30T04:54:35.388Z,519.50
2023-04-30T04:55:34.355Z,531.40
2023-04-30T04:56:34.381Z,427.80
2023-04-30T04:57:34.334Z,509.30
2023-04-30T04:58:34.355Z,498.30
2023-04-30T04:59:35.159Z,438.80
2023-04-30T05:00:34.318Z,380.70
2023-04-30T05:01:34.359Z,523.20
2023-04-30T05:02:34.382Z,464.30
2023-04-30T05:03:34.491Z,402.80
2023-04-30T05:04:34.298Z,508.90
2023-04-30T05:05:34.306Z,549.60
2023-04-30T05:06:34.327Z,373.10
2023-04-30T05:07:34.260Z,441.50
2023-04-30T05:08:34.275Z,645.70
2023-04-30T05:09:34.249Z,367.60
2023-04-30T05:10:34.240Z,483.30
2023-04-30T05:11:34.236Z,548.60
2023-04-30T05:12:34.220Z,482.90
2023-04-30T05:13:34.224Z,702.80
2023-04-30T05:14:34.240Z,426.70
2023-04-30T05:15:34.247Z,343.20
2023-04-30T05:16:34.267Z,458.30
2023-04-30T05:17:34.246Z,409.80
2023-04-30T05:18:34.189Z,379.20
2023-04-30T05:19:34.185Z,437.10
2023-04-30T05:20:34.208Z,443.80
2023-04-30T05:21:34.186Z,443.70
2023-04-30T05:22:34.166Z,331.00
2023-04-30T05:23:34.148Z,312.20
2023-04-30T05:24:34.173Z,394.10
2023-04-30T05:25:34.146Z,283.40
2023-04-30T05:26:34.139Z,340.80
2023-04-30T05:27:34.142Z,277.40
2023-04-30T05:28:34.122Z,302.40
2023-04-30T05:29:34.109Z,267.20
2023-04-30T05:30:34.102Z,305.90
2023-04-30T05:31:34.122Z,223.00
2023-04-30T05:32:34.153Z,291.20
2023-04-30T05:33:34.062Z,309.30
2023-04-30T05:34:34.085Z,250.90
2023-04-30T05:35:34.076Z,285.10
2023-04-30T05:36:34.063Z,156.40
2023-04-30T05:37:34.064Z,233.50
2023-04-30T05:38:34.034Z,333.80
2023-04-30T05:39:34.033Z,399.80
2023-04-30T05:40:34.034Z,176.60
2023-04-30T05:41:34.026Z,200.50
2023-04-30T05:42:34.042Z,202.60
2023-04-30T05:43:33.982Z,164.60
2023-04-30T05:44:33.991Z,184.20
2023-04-30T05:45:33.979Z,187.20
2023-04-30T05:46:33.983Z,177.70
2023-04-30T05:47:34.008Z,164.10
2023-04-30T05:48:34.825Z,111.80
2023-04-30T05:49:36.011Z,267.20
2023-04-30T05:50:34.937Z,127.10
2023-04-30T05:51:33.931Z,146.80
2023-04-30T05:52:33.933Z,78.20
2023-04-30T05:53:33.942Z,56.40
2023-04-30T05:54:33.950Z,61.50
2023-04-30T05:55:33.894Z,79.40
2023-04-30T05:56:33.902Z,69.80
2023-04-30T05:57:33.900Z,54.60
2023-04-30T05:58:33.916Z,79.60
2023-04-30T05:59:33.865Z,35.60
2023-04-30T06:00:34.006Z,65.10
2023-04-30T06:01:34.017Z,43.40
2023-04-30T06:02:34.050Z,45.80
2023-04-30T06:03:33.876Z,43.10
2023-04-30T06:04:34.836Z,32.90
2023-04-30T06:05:33.873Z,28.20
2023-04-30T06:06:33.895Z,38.00
2023-04-30T06:07:33.821Z,26.40
2023-04-30T06:08:33.829Z,29.60
2023-04-30T06:09:33.822Z,34.10
2023-04-30T06:10:33.788Z,19.90
2023-04-30T06:11:33.813Z,17.40
2023-04-30T06:12:33.787Z,14.00
2023-04-30T06:13:33.815Z,10.30
2023-04-30T06:14:33.752Z,11.10
2023-04-30T06:15:33.748Z,9.60
2023-04-30T06:16:33.861Z,8.80
2023-04-30T06:17:33.796Z,8.40
2023-04-30T06:18:33.746Z,8.50
2023-04-30T06:19:33.748Z,8.60
2023-04-30T06:20:33.727Z,8.20
2023-04-30T06:21:33.755Z,7.30
2023-04-30T06:22:33.722Z,7.80
2023-04-30T06:23:33.708Z,9.00
2023-04-30T06:24:33.669Z,7.40
2023-04-30T06:25:34.696Z,9.10
2023-04-30T06:26:33.672Z,7.80
2023-04-30T06:27:33.694Z,7.10
2023-04-30T06:28:33.644Z,6.90
2023-04-30T06:29:33.675Z,8.40
2023-04-30T06:30:33.654Z,7.20
2023-04-30T06:31:33.651Z,7.40
2023-04-30T06:32:35.362Z,7.50
2023-04-30T06:33:33.623Z,8.50
2023-04-30T06:34:33.602Z,7.30
2023-04-30T06:35:33.591Z,10.60
2023-04-30T06:36:33.609Z,8.00
2023-04-30T06:37:33.618Z,7.80
2023-04-30T06:38:34.643Z,8.80
2023-04-30T06:39:33.568Z,9.70
2023-04-30T06:40:33.593Z,9.40
2023-04-30T06:41:33.560Z,7.10
2023-04-30T06:42:33.669Z,9.10
2023-04-30T06:43:33.554Z,7.60
2023-04-30T06:44:33.544Z,8.40
2023-04-30T06:45:33.559Z,8.50
2023-04-30T06:46:33.560Z,8.10
2023-04-30T06:47:34.371Z,7.70
2023-04-30T06:48:33.509Z,10.30
2023-04-30T06:49:33.497Z,11.20
2023-04-30T06:50:33.573Z,10.70
2023-04-30T06:51:33.498Z,9.30
2023-04-30T06:52:33.505Z,9.00
2023-04-30T06:53:33.528Z,8.30
2023-04-30T06:54:33.488Z,9.40
2023-04-30T06:55:33.458Z,10.00
2023-04-30T06:56:33.462Z,7.20
2023-04-30T06:57:33.445Z,8.70
2023-04-30T06:58:33.451Z,7.70
2023-04-30T06:59:33.415Z,7.70
2023-04-30T07:00:33.399Z,8.10
2023-04-30T07:01:34.493Z,7.60
2023-04-30T07:02:33.506Z,8.60
2023-04-30T07:03:33.542Z,8.20
2023-04-30T07:04:33.386Z,9.20
2023-04-30T07:05:33.418Z,9.20
2023-04-30T07:06:33.388Z,8.40
2023-04-30T07:07:33.360Z,8.30
2023-04-30T07:08:33.361Z,9.00
2023-04-30T07:09:33.346Z,9.50
2023-04-30T07:10:34.382Z,7.40
2023-04-30T07:11:33.331Z,7.80
2023-04-30T07:12:33.349Z,8.40
2023-04-30T07:13:33.342Z,7.30
2023-04-30T07:14:33.298Z,8.50
2023-04-30T07:15:33.335Z,9.90
2023-04-30T07:16:34.358Z,7.70
2023-04-30T07:17:33.384Z,5.80
2023-04-30T07:18:33.273Z,6.80
2023-04-30T07:19:33.314Z,6.20
2023-04-30T07:20:33.286Z,7.50
2023-04-30T07:21:33.879Z,7.90
2023-04-30T07:22:34.265Z,5.40
2023-04-30T07:23:33.295Z,8.30
2023-04-30T07:24:33.225Z,5.20
2023-04-30T07:25:33.270Z,7.50
2023-04-30T07:26:33.272Z,5.20
2023-04-30T07:27:33.223Z,6.10
2023-04-30T07:28:33.203Z,5.70
2023-04-30T07:29:33.201Z,5.20
2023-04-30T07:30:33.194Z,6.00
2023-04-30T07:31:33.220Z,5.50
2023-04-30T07:32:33.312Z,5.60
2023-04-30T07:33:33.194Z,5.10
2023-04-30T07:34:33.199Z,4.60
2023-04-30T07:35:33.160Z,5.10
2023-04-30T07:36:33.155Z,6.20
2023-04-30T07:37:35.272Z,6.00
2023-04-30T07:38:34.165Z,4.70
2023-04-30T07:39:33.144Z,6.00
2023-04-30T07:40:36.417Z,7.20
2023-04-30T07:41:34.142Z,5.70
2023-04-30T07:42:33.115Z,5.70
2023-04-30T07:43:33.125Z,4.10
2023-04-30T07:44:33.121Z,4.10
2023-04-30T07:45:33.152Z,6.10
2023-04-30T07:46:33.154Z,4.70
2023-04-30T07:47:33.113Z,3.80
2023-04-30T07:48:33.084Z,5.30
2023-04-30T07:49:33.081Z,6.10
2023-04-30T07:50:33.049Z,6.50
2023-04-30T07:51:33.078Z,4.10
2023-04-30T07:52:33.062Z,4.90
2023-04-30T07:53:33.065Z,4.30
2023-04-30T07:54:33.021Z,6.30
2023-04-30T07:55:33.054Z,5.90
2023-04-30T07:56:32.993Z,7.00
2023-04-30T07:57:32.993Z,5.60
2023-04-30T07:58:33.021Z,4.40
2023-04-30T07:59:33.888Z,5.10
2023-04-30T08:00:33.011Z,4.50
2023-04-30T08:01:33.035Z,5.40
2023-04-30T08:02:33.119Z,5.20
2023-04-30T08:03:33.130Z,5.20
2023-04-30T08:04:33.002Z,4.80
2023-04-30T08:05:32.983Z,3.60
2023-04-30T08:06:33.035Z,5.20
2023-04-30T08:07:32.939Z,3.30
2023-04-30T08:08:32.915Z,5.20
2023-04-30T08:09:32.932Z,4.80
2023-04-30T08:10:32.884Z,4.40
2023-04-30T08:11:32.936Z,6.20
2023-04-30T08:12:32.903Z,4.80
2023-04-30T08:13:32.889Z,4.70
2023-04-30T08:14:32.964Z,5.60
2023-04-30T08:15:32.890Z,5.20
2023-04-30T08:16:32.941Z,6.30
2023-04-30T08:17:32.879Z,5.20
2023-04-30T08:18:32.850Z,5.30
2023-04-30T08:19:32.892Z,4.00
2023-04-30T08:20:32.870Z,4.10
2023-04-30T08:21:32.839Z,5.00
2023-04-30T08:22:32.816Z,5.30
2023-04-30T08:23:32.835Z,6.00
2023-04-30T08:24:32.823Z,3.90
2023-04-30T08:25:32.811Z,4.50
2023-04-30T08:26:32.806Z,5.00
2023-04-30T08:27:32.813Z,4.90
2023-04-30T08:28:32.771Z,4.10
2023-04-30T08:29:32.825Z,6.90
2023-04-30T08:30:32.768Z,4.30
2023-04-30T08:31:32.909Z,3.70
2023-04-30T08:32:32.862Z,6.20
2023-04-30T08:33:32.775Z,5.40
2023-04-30T08:34:32.748Z,6.10
2023-04-30T08:35:32.756Z,5.10
2023-04-30T08:36:32.728Z,3.00
2023-04-30T08:38:04.670Z,5.90
2023-04-30T08:38:32.713Z,3.70
2023-04-30T08:39:32.711Z,3.40
2023-04-30T08:41:33.667Z,4.20
2023-04-30T08:42:34.258Z,4.40
2023-04-30T08:43:32.696Z,9.60
2023-04-30T08:44:33.848Z,5.20
2023-04-30T08:45:32.655Z,4.90
2023-04-30T08:46:32.679Z,3.60
2023-04-30T08:47:32.645Z,3.60
2023-04-30T08:48:32.696Z,4.10
2023-04-30T08:49:32.601Z,4.70
2023-04-30T08:50:32.610Z,3.90
2023-04-30T08:51:33.627Z,3.80
2023-04-30T08:52:32.619Z,3.30
2023-04-30T08:53:32.628Z,4.30
2023-04-30T08:54:32.623Z,4.20
2023-04-30T08:55:32.616Z,5.00
2023-04-30T08:56:32.578Z,4.40
2023-04-30T08:57:32.620Z,3.80
2023-04-30T08:58:32.549Z,6.40
2023-04-30T08:59:32.591Z,4.00
2023-04-30T09:00:32.550Z,3.60
2023-04-30T09:01:32.633Z,3.70
2023-04-30T09:02:32.619Z,4.70
2023-04-30T09:03:32.712Z,4.40
2023-04-30T09:04:32.505Z,4.20
2023-04-30T09:05:32.500Z,3.60
2023-04-30T09:06:32.583Z,3.20
2023-04-30T09:07:32.529Z,3.30
2023-04-30T09:08:32.498Z,4.90
2023-04-30T09:09:32.487Z,5.30
2023-04-30T09:10:32.503Z,3.40
2023-04-30T09:11:32.525Z,5.40
2023-04-30T09:12:32.439Z,6.10
2023-04-30T09:13:32.436Z,5.80
2023-04-30T09:14:32.483Z,4.90
2023-04-30T09:15:32.451Z,3.50
2023-04-30T09:16:32.555Z,3.70
2023-04-30T09:17:32.461Z,6.50
2023-04-30T09:18:32.418Z,3.20
2023-04-30T09:19:33.423Z,4.50
2023-04-30T09:20:32.445Z,3.40
2023-04-30T09:21:32.418Z,3.90
2023-04-30T09:22:32.409Z,2.90
2023-04-30T09:23:32.403Z,3.30
2023-04-30T09:24:32.376Z,2.10
2023-04-30T09:25:32.428Z,2.60
2023-04-30T09:26:32.409Z,2.50
2023-04-30T09:27:32.336Z,2.60
2023-04-30T09:28:32.349Z,2.20
2023-04-30T09:29:32.335Z,2.50
2023-04-30T09:30:32.352Z,4.50
2023-04-30T09:31:32.365Z,2.70
2023-04-30T09:32:32.448Z,2.80
2023-04-30T09:33:32.972Z,3.30
2023-04-30T09:34:32.290Z,3.30
2023-04-30T09:35:32.295Z,4.00
2023-04-30T09:36:32.357Z,4.20
2023-04-30T09:37:32.299Z,2.00
2023-04-30T09:38:32.346Z,4.80
2023-04-30T09:39:32.306Z,3.00
2023-04-30T09:40:32.948Z,2.00
2023-04-30T09:41:32.281Z,1.80
2023-04-30T09:42:32.246Z,3.30
2023-04-30T09:43:32.327Z,2.90
2023-04-30T09:44:32.229Z,2.80
2023-04-30T09:45:33.127Z,1.80
2023-04-30T09:46:32.293Z,1.70
2023-04-30T09:47:32.269Z,3.70
2023-04-30T09:48:32.216Z,2.80
2023-04-30T09:49:32.243Z,2.40
2023-04-30T09:50:32.219Z,5.30
2023-04-30T09:51:32.197Z,3.40
2023-04-30T09:52:32.176Z,2.80
2023-04-30T09:53:32.136Z,2.20
2023-04-30T09:54:32.206Z,4.10
2023-04-30T09:55:32.131Z,3.10
2023-04-30T09:56:32.132Z,1.60
2023-04-30T09:57:32.165Z,3.70
2023-04-30T09:58:32.132Z,2.20
2023-04-30T09:59:32.218Z,1.80
2023-04-30T10:00:32.141Z,2.20
2023-04-30T10:01:32.094Z,2.10
2023-04-30T10:02:32.864Z,2.00
2023-04-30T10:03:32.190Z,2.30
2023-04-30T10:04:32.088Z,2.50
2023-04-30T10:05:32.071Z,1.40
2023-04-30T10:06:32.091Z,1.30
2023-04-30T10:07:32.071Z,4.60
2023-04-30T10:08:32.076Z,6.10
2023-04-30T10:09:32.032Z,3.80
2023-04-30T10:10:32.956Z,2.40
2023-04-30T10:11:32.050Z,1.70
2023-04-30T10:12:32.090Z,4.00
2023-04-30T10:13:32.009Z,4.30
2023-04-30T10:14:32.007Z,3.90
2023-04-30T10:15:32.021Z,2.30
2023-04-30T10:16:32.048Z,2.60
2023-04-30T10:17:31.982Z,1.30
2023-04-30T10:18:31.997Z,2.50
2023-04-30T10:19:31.990Z,1.60
2023-04-30T10:20:31.998Z,2.90
2023-04-30T10:21:31.968Z,1.90
2023-04-30T10:22:31.974Z,2.40
2023-04-30T10:23:31.978Z,1.30
2023-04-30T10:24:31.978Z,2.10
2023-04-30T10:25:31.924Z,2.20
2023-04-30T10:26:31.931Z,2.90
2023-04-30T10:27:31.948Z,2.40
2023-04-30T10:28:31.932Z,1.50
2023-04-30T10:30:03.882Z,1.80
2023-04-30T10:30:31.916Z,1.00
2023-04-30T10:31:31.946Z,0.80
2023-04-30T10:32:31.940Z,1.50
2023-04-30T10:33:31.908Z,6.80
2023-04-30T10:34:31.903Z,1.10
2023-04-30T10:35:31.864Z,1.40
2023-04-30T10:36:31.829Z,3.20
2023-04-30T10:37:32.818Z,2.40
2023-04-30T10:38:31.910Z,3.40
2023-04-30T10:39:31.828Z,2.40
2023-04-30T10:40:31.873Z,2.60
2023-04-30T10:41:31.847Z,3.30
2023-04-30T10:42:31.889Z,2.20
2023-04-30T10:43:31.820Z,3.10
2023-04-30T10:44:31.791Z,4.10
2023-04-30T10:45:31.814Z,1.40
2023-04-30T10:46:31.886Z,1.20
2023-04-30T10:47:31.866Z,2.40
2023-04-30T10:48:31.785Z,4.10
2023-04-30T10:49:31.792Z,3.00
2023-04-30T10:50:31.753Z,3.60
2023-04-30T10:51:31.795Z,2.50
2023-04-30T10:52:31.750Z,2.30
2023-04-30T10:53:31.718Z,2.60
2023-04-30T10:54:31.711Z,1.90
2023-04-30T10:55:31.717Z,1.30
2023-04-30T10:56:31.753Z,2.40
2023-04-30T10:57:31.682Z,1.70
2023-04-30T10:58:31.685Z,2.30
2023-04-30T10:59:31.674Z,2.30
2023-04-30T11:00:31.655Z,2.20
2023-04-30T11:01:31.704Z,2.80
2023-04-30T11:02:31.719Z,2.20
2023-04-30T11:03:31.665Z,2.60
2023-04-30T11:04:31.745Z,1.80
2023-04-30T11:05:31.629Z,3.80
2023-04-30T11:06:31.708Z,1.80
2023-04-30T11:07:31.652Z,1.90
2023-04-30T11:08:31.620Z,1.90
2023-04-30T11:09:31.635Z,2.40
2023-04-30T11:10:31.611Z,1.50
2023-04-30T11:11:31.641Z,1.30
2023-04-30T11:12:31.639Z,1.70
2023-04-30T11:13:31.577Z,1.50
2023-04-30T11:14:31.580Z,1.80
2023-04-30T11:15:31.590Z,2.00
2023-04-30T11:16:31.831Z,2.00
2023-04-30T11:17:31.590Z,1.70
2023-04-30T11:18:31.541Z,3.10
2023-04-30T11:19:31.532Z,3.30
2023-04-30T11:20:31.522Z,1.30
2023-04-30T11:21:31.551Z,1.40
2023-04-30T11:22:31.520Z,2.70
2023-04-30T11:23:39.289Z,1.90
2023-04-30T11:24:33.484Z,1.70
2023-04-30T11:25:32.482Z,1.60
2023-04-30T11:26:31.523Z,2.60
2023-04-30T11:27:31.492Z,2.30
2023-04-30T11:28:31.470Z,2.50
2023-04-30T11:29:31.492Z,3.00
2023-04-30T11:30:31.453Z,3.10
2023-04-30T11:31:31.532Z,2.40
2023-04-30T11:32:31.465Z,1.70
2023-04-30T11:33:31.484Z,3.10
2023-04-30T11:34:32.473Z,2.80
2023-04-30T11:35:31.468Z,2.60
2023-04-30T11:36:31.447Z,2.70
2023-04-30T11:37:31.412Z,2.20
2023-04-30T11:38:31.418Z,3.60
2023-04-30T11:39:31.387Z,2.30
2023-04-30T11:40:31.402Z,1.20
2023-04-30T11:41:31.378Z,3.80
2023-04-30T11:42:32.391Z,4.10
2023-04-30T11:43:31.486Z,2.40
2023-04-30T11:44:31.394Z,4.60
2023-04-30T11:45:31.373Z,2.00
2023-04-30T11:46:31.392Z,2.90
2023-04-30T11:47:32.368Z,1.70
2023-04-30T11:48:31.346Z,2.00
2023-04-30T11:49:31.345Z,2.30
2023-04-30T11:50:31.358Z,2.80
2023-04-30T11:51:31.317Z,2.30
2023-04-30T11:52:31.318Z,2.30
2023-04-30T11:53:31.315Z,4.00
2023-04-30T11:54:31.286Z,2.10
2023-04-30T11:55:31.402Z,1.60
2023-04-30T11:56:31.271Z,1.80
2023-04-30T11:57:31.259Z,2.10
2023-04-30T11:58:31.280Z,2.40
2023-04-30T11:59:31.317Z,1.50
2023-04-30T12:00:31.278Z,1.70
2023-04-30T12:01:31.234Z,3.10
2023-04-30T12:02:31.424Z,1.90
2023-04-30T12:03:31.398Z,2.10
2023-04-30T12:04:31.326Z,3.30
2023-04-30T12:05:31.211Z,4.10
2023-04-30T12:06:31.367Z,3.40
2023-04-30T12:07:31.220Z,2.00
2023-04-30T12:08:31.223Z,2.10
2023-04-30T12:09:31.293Z,2.80
2023-04-30T12:10:31.166Z,2.20
2023-04-30T12:11:31.213Z,3.40
2023-04-30T12:12:31.188Z,2.20
2023-04-30T12:13:31.148Z,3.80
2023-04-30T12:14:31.168Z,2.70
2023-04-30T12:15:31.212Z,2.90
2023-04-30T12:16:31.179Z,2.20
2023-04-30T12:17:31.167Z,2.20
2023-04-30T12:18:31.150Z,2.40
2023-04-30T12:19:31.205Z,2.00
2023-04-30T12:20:31.114Z,1.90
2023-04-30T12:21:31.165Z,3.20
2023-04-30T12:22:31.097Z,1.90
2023-04-30T12:23:31.122Z,4.00
2023-04-30T12:25:03.959Z,3.40
2023-04-30T12:25:31.071Z,3.20
2023-04-30T12:27:03.012Z,1.70
2023-04-30T12:27:31.053Z,3.50
2023-04-30T12:28:31.074Z,1.90
2023-04-30T12:29:31.582Z,2.20
2023-04-30T12:31:05.535Z,1.50
2023-04-30T12:32:03.027Z,2.10
2023-04-30T12:33:04.197Z,3.30
2023-04-30T12:33:31.020Z,2.60
2023-04-30T12:34:33.700Z,3.00
2023-04-30T12:35:31.983Z,0.90
2023-04-30T12:36:31.001Z,1.70
2023-04-30T12:37:31.010Z,1.30
2023-04-30T12:38:30.985Z,2.60
2023-04-30T12:39:30.993Z,1.60
2023-04-30T12:40:30.961Z,1.70
2023-04-30T12:41:30.953Z,2.60
2023-04-30T12:42:31.519Z,1.80
2023-04-30T12:43:30.950Z,2.10
2023-04-30T12:44:30.989Z,1.80
2023-04-30T12:45:30.958Z,2.60
2023-04-30T12:46:30.949Z,2.60
2023-04-30T12:47:30.945Z,2.20
2023-04-30T12:48:30.918Z,2.20
2023-04-30T12:49:30.994Z,2.60
2023-04-30T12:50:31.015Z,3.00
2023-04-30T12:51:30.859Z,2.10
2023-04-30T12:52:30.872Z,1.90
2023-04-30T12:53:31.902Z,4.00
2023-04-30T12:54:30.869Z,3.60
2023-04-30T12:55:30.854Z,3.70
2023-04-30T12:56:31.663Z,2.50
2023-04-30T12:57:30.826Z,1.60
2023-04-30T12:58:30.831Z,2.40
2023-04-30T12:59:30.824Z,2.10
2023-04-30T13:00:30.839Z,2.50
2023-04-30T13:01:31.679Z,2.70
2023-04-30T13:02:30.881Z,4.90
2023-04-30T13:03:30.920Z,2.10
2023-04-30T13:04:30.764Z,1.90
2023-04-30T13:05:30.822Z,1.40
2023-04-30T13:06:30.837Z,2.60
2023-04-30T13:07:30.745Z,2.50
2023-04-30T13:08:31.465Z,2.30
2023-04-30T13:09:31.730Z,2.10
2023-04-30T13:10:30.774Z,1.60
2023-04-30T13:11:30.749Z,2.40
2023-04-30T13:12:30.707Z,1.90
2023-04-30T13:13:31.779Z,1.90
2023-04-30T13:14:30.685Z,1.80
2023-04-30T13:15:30.705Z,2.50
2023-04-30T13:16:30.832Z,2.80